sensor_id;sensor_type;location;lat;lon;timestamp;temperature;humidity
12504;DHT22;6316;48.118;-1.690;2023-05-24T00:00:30;13.00;99.90
12504;DHT22;6316;48.118;-1.690;2023-05-24T00:02:56;13.00;99.90
12504;DHT22;6316;48.118;-1.690;2023-05-24T00:05:22;13.00;99.90
12504;DHT22;6316;48.118;-1.690;2023-05-24T00:07:48;12.90;99.90
12504;DHT22;6316;48.118;-1.690;2023-05-24T00:10:14;12.90;99.90
12504;DHT22;6316;48.118;-1.690;2023-05-24T00:12:40;12.90;99.90
12504;DHT22;6316;48.118;-1.690;2023-05-24T00:15:06;12.80;99.90
12504;DHT22;6316;48.118;-1.690;2023-05-24T00:17:32;12.80;99.90
12504;DHT22;6316;48.118;-1.690;2023-05-24T00:19:59;12.80;99.90
12504;DHT22;6316;48.118;-1.690;2023-05-24T00:22:25;12.70;99.90
12504;DHT22;6316;48.118;-1.690;2023-05-24T00:24:50;12.70;99.90
12504;DHT22;6316;48.118;-1.690;2023-05-24T00:27:16;12.70;99.90
12504;DHT22;6316;48.118;-1.690;2023-05-24T00:29:42;12.60;99.90
12504;DHT22;6316;48.118;-1.690;2023-05-24T00:32:07;12.60;99.90
12504;DHT22;6316;48.118;-1.690;2023-05-24T00:34:33;12.60;99.90
12504;DHT22;6316;48.118;-1.690;2023-05-24T00:36:59;12.60;99.90
12504;DHT22;6316;48.118;-1.690;2023-05-24T00:39:25;12.50;99.90
12504;DHT22;6316;48.118;-1.690;2023-05-24T00:41:51;12.50;99.90
12504;DHT22;6316;48.118;-1.690;2023-05-24T00:44:16;12.50;99.90
12504;DHT22;6316;48.118;-1.690;2023-05-24T00:46:42;12.40;99.90
12504;DHT22;6316;48.118;-1.690;2023-05-24T00:49:08;12.40;99.90
12504;DHT22;6316;48.118;-1.690;2023-05-24T00:51:34;12.40;99.90
12504;DHT22;6316;48.118;-1.690;2023-05-24T00:54:01;12.30;99.90
12504;DHT22;6316;48.118;-1.690;2023-05-24T00:56:27;12.30;99.90
12504;DHT22;6316;48.118;-1.690;2023-05-24T00:58:53;12.30;99.90
12504;DHT22;6316;48.118;-1.690;2023-05-24T01:01:21;12.30;99.90
12504;DHT22;6316;48.118;-1.690;2023-05-24T01:03:53;12.20;99.90
12504;DHT22;6316;48.118;-1.690;2023-05-24T01:06:19;12.20;99.90
12504;DHT22;6316;48.118;-1.690;2023-05-24T01:14:29;12.10;99.90
12504;DHT22;6316;48.118;-1.690;2023-05-24T01:20:03;12.10;99.90
12504;DHT22;6316;48.118;-1.690;2023-05-24T01:22:57;12.10;99.90
12504;DHT22;6316;48.118;-1.690;2023-05-24T01:28:10;12.00;99.90
12504;DHT22;6316;48.118;-1.690;2023-05-24T01:30:39;12.00;99.90
12504;DHT22;6316;48.118;-1.690;2023-05-24T01:33:06;11.90;99.90
12504;DHT22;6316;48.118;-1.690;2023-05-24T01:35:31;11.90;99.90
12504;DHT22;6316;48.118;-1.690;2023-05-24T01:38:02;11.90;99.90
12504;DHT22;6316;48.118;-1.690;2023-05-24T01:40:27;11.90;99.90
12504;DHT22;6316;48.118;-1.690;2023-05-24T01:48:27;11.80;99.90
12504;DHT22;6316;48.118;-1.690;2023-05-24T01:51:00;11.80;99.90
12504;DHT22;6316;48.118;-1.690;2023-05-24T01:53:33;11.70;99.90
12504;DHT22;6316;48.118;-1.690;2023-05-24T01:56:01;11.70;99.90
12504;DHT22;6316;48.118;-1.690;2023-05-24T01:58:29;11.70;99.90
12504;DHT22;6316;48.118;-1.690;2023-05-24T02:00:56;11.60;99.90
12504;DHT22;6316;48.118;-1.690;2023-05-24T02:03:22;11.60;99.90
12504;DHT22;6316;48.118;-1.690;2023-05-24T02:05:47;11.60;99.90
12504;DHT22;6316;48.118;-1.690;2023-05-24T02:08:13;11.60;99.90
12504;DHT22;6316;48.118;-1.690;2023-05-24T02:10:39;11.50;99.90
12504;DHT22;6316;48.118;-1.690;2023-05-24T02:13:06;11.50;99.90
12504;DHT22;6316;48.118;-1.690;2023-05-24T02:15:32;11.40;99.90
12504;DHT22;6316;48.118;-1.690;2023-05-24T02:17:59;11.50;99.90
12504;DHT22;6316;48.118;-1.690;2023-05-24T02:20:26;11.40;99.90
12504;DHT22;6316;48.118;-1.690;2023-05-24T02:22:58;11.40;99.90
12504;DHT22;6316;48.118;-1.690;2023-05-24T02:25:24;11.40;99.90
12504;DHT22;6316;48.118;-1.690;2023-05-24T02:27:50;11.30;99.90
12504;DHT22;6316;48.118;-1.690;2023-05-24T02:30:16;11.30;99.90
12504;DHT22;6316;48.118;-1.690;2023-05-24T02:32:42;11.30;99.90
12504;DHT22;6316;48.118;-1.690;2023-05-24T02:35:07;11.30;99.90
12504;DHT22;6316;48.118;-1.690;2023-05-24T02:37:33;11.30;99.90
12504;DHT22;6316;48.118;-1.690;2023-05-24T02:39:59;11.20;99.90
12504;DHT22;6316;48.118;-1.690;2023-05-24T02:42:24;11.20;99.90
12504;DHT22;6316;48.118;-1.690;2023-05-24T02:44:50;11.20;99.90
12504;DHT22;6316;48.118;-1.690;2023-05-24T02:47:17;11.20;99.90
12504;DHT22;6316;48.118;-1.690;2023-05-24T02:49:44;11.10;99.90
12504;DHT22;6316;48.118;-1.690;2023-05-24T02:52:09;11.10;99.90
12504;DHT22;6316;48.118;-1.690;2023-05-24T02:54:35;11.10;99.90
12504;DHT22;6316;48.118;-1.690;2023-05-24T02:57:01;11.10;99.90
12504;DHT22;6316;48.118;-1.690;2023-05-24T02:59:28;11.10;99.90
12504;DHT22;6316;48.118;-1.690;2023-05-24T03:01:54;11.00;99.90
12504;DHT22;6316;48.118;-1.690;2023-05-24T03:04:19;11.00;99.90
12504;DHT22;6316;48.118;-1.690;2023-05-24T03:06:45;11.00;99.90
12504;DHT22;6316;48.118;-1.690;2023-05-24T03:09:11;11.00;99.90
12504;DHT22;6316;48.118;-1.690;2023-05-24T03:11:37;10.90;99.90
12504;DHT22;6316;48.118;-1.690;2023-05-24T03:14:03;10.90;99.90
12504;DHT22;6316;48.118;-1.690;2023-05-24T03:16:30;10.90;99.90
12504;DHT22;6316;48.118;-1.690;2023-05-24T03:18:56;10.90;99.90
12504;DHT22;6316;48.118;-1.690;2023-05-24T03:21:23;11.00;99.90
12504;DHT22;6316;48.118;-1.690;2023-05-24T03:23:49;10.90;99.90
12504;DHT22;6316;48.118;-1.690;2023-05-24T03:26:15;10.80;99.90
12504;DHT22;6316;48.118;-1.690;2023-05-24T03:28:43;10.80;99.90
12504;DHT22;6316;48.118;-1.690;2023-05-24T03:31:09;10.80;99.90
12504;DHT22;6316;48.118;-1.690;2023-05-24T03:33:35;10.80;99.90
12504;DHT22;6316;48.118;-1.690;2023-05-24T03:36:01;10.80;99.90
12504;DHT22;6316;48.118;-1.690;2023-05-24T03:38:28;10.80;99.90
12504;DHT22;6316;48.118;-1.690;2023-05-24T03:40:54;10.80;99.90
12504;DHT22;6316;48.118;-1.690;2023-05-24T03:43:20;10.80;99.90
12504;DHT22;6316;48.118;-1.690;2023-05-24T03:45:46;10.80;99.90
12504;DHT22;6316;48.118;-1.690;2023-05-24T03:48:12;10.80;99.90
12504;DHT22;6316;48.118;-1.690;2023-05-24T03:50:38;10.80;99.90
12504;DHT22;6316;48.118;-1.690;2023-05-24T03:53:04;10.80;99.90
12504;DHT22;6316;48.118;-1.690;2023-05-24T03:55:30;10.70;99.90
12504;DHT22;6316;48.118;-1.690;2023-05-24T03:57:55;10.80;99.90
12504;DHT22;6316;48.118;-1.690;2023-05-24T04:00:21;10.70;99.90
12504;DHT22;6316;48.118;-1.690;2023-05-24T04:02:47;10.70;99.90
12504;DHT22;6316;48.118;-1.690;2023-05-24T04:05:13;10.70;99.90
12504;DHT22;6316;48.118;-1.690;2023-05-24T04:07:39;10.70;99.90
12504;DHT22;6316;48.118;-1.690;2023-05-24T04:10:08;10.60;99.90
12504;DHT22;6316;48.118;-1.690;2023-05-24T04:12:34;10.60;99.90
12504;DHT22;6316;48.118;-1.690;2023-05-24T04:15:00;10.60;99.90
12504;DHT22;6316;48.118;-1.690;2023-05-24T04:17:29;10.60;99.90
12504;DHT22;6316;48.118;-1.690;2023-05-24T04:19:59;10.60;99.90
12504;DHT22;6316;48.118;-1.690;2023-05-24T04:22:25;10.60;99.90
12504;DHT22;6316;48.118;-1.690;2023-05-24T04:24:51;10.60;99.90
12504;DHT22;6316;48.118;-1.690;2023-05-24T04:27:16;10.60;99.90
12504;DHT22;6316;48.118;-1.690;2023-05-24T04:29:44;10.60;99.90
12504;DHT22;6316;48.118;-1.690;2023-05-24T04:32:14;10.60;99.90
12504;DHT22;6316;48.118;-1.690;2023-05-24T04:34:40;10.60;99.90
12504;DHT22;6316;48.118;-1.690;2023-05-24T04:37:07;10.60;99.90
12504;DHT22;6316;48.118;-1.690;2023-05-24T04:39:33;10.60;99.90
12504;DHT22;6316;48.118;-1.690;2023-05-24T04:41:59;10.60;99.90
12504;DHT22;6316;48.118;-1.690;2023-05-24T04:44:25;10.60;99.90
12504;DHT22;6316;48.118;-1.690;2023-05-24T04:46:52;10.60;99.90
12504;DHT22;6316;48.118;-1.690;2023-05-24T04:49:17;10.60;99.90
12504;DHT22;6316;48.118;-1.690;2023-05-24T04:51:44;10.60;99.90
12504;DHT22;6316;48.118;-1.690;2023-05-24T04:54:10;10.70;99.90
12504;DHT22;6316;48.118;-1.690;2023-05-24T04:56:37;10.70;99.90
12504;DHT22;6316;48.118;-1.690;2023-05-24T04:59:06;10.70;99.90
12504;DHT22;6316;48.118;-1.690;2023-05-24T05:01:33;10.70;99.90
12504;DHT22;6316;48.118;-1.690;2023-05-24T05:03:59;10.80;99.90
12504;DHT22;6316;48.118;-1.690;2023-05-24T05:06:25;10.80;99.90
12504;DHT22;6316;48.118;-1.690;2023-05-24T05:08:50;10.80;99.90
12504;DHT22;6316;48.118;-1.690;2023-05-24T05:11:17;10.80;99.90
12504;DHT22;6316;48.118;-1.690;2023-05-24T05:13:45;10.90;99.90
12504;DHT22;6316;48.118;-1.690;2023-05-24T05:16:11;10.90;99.90
12504;DHT22;6316;48.118;-1.690;2023-05-24T05:18:37;10.90;99.90
12504;DHT22;6316;48.118;-1.690;2023-05-24T05:21:03;10.90;99.90
12504;DHT22;6316;48.118;-1.690;2023-05-24T05:23:29;11.00;99.90
12504;DHT22;6316;48.118;-1.690;2023-05-24T05:25:55;11.00;99.90
12504;DHT22;6316;48.118;-1.690;2023-05-24T05:28:21;11.00;99.90
12504;DHT22;6316;48.118;-1.690;2023-05-24T05:30:47;11.10;99.90
12504;DHT22;6316;48.118;-1.690;2023-05-24T05:33:12;11.20;99.90
12504;DHT22;6316;48.118;-1.690;2023-05-24T05:35:38;11.20;99.90
12504;DHT22;6316;48.118;-1.690;2023-05-24T05:38:04;11.20;99.90
12504;DHT22;6316;48.118;-1.690;2023-05-24T05:40:29;11.30;99.90
12504;DHT22;6316;48.118;-1.690;2023-05-24T05:42:55;11.30;99.90
12504;DHT22;6316;48.118;-1.690;2023-05-24T05:45:21;11.40;99.90
12504;DHT22;6316;48.118;-1.690;2023-05-24T05:47:46;11.40;99.90
12504;DHT22;6316;48.118;-1.690;2023-05-24T05:50:12;11.50;99.90
12504;DHT22;6316;48.118;-1.690;2023-05-24T05:52:37;11.50;99.90
12504;DHT22;6316;48.118;-1.690;2023-05-24T05:55:03;11.60;99.90
12504;DHT22;6316;48.118;-1.690;2023-05-24T05:57:29;11.70;99.90
12504;DHT22;6316;48.118;-1.690;2023-05-24T05:59:55;11.70;99.90
12504;DHT22;6316;48.118;-1.690;2023-05-24T06:02:20;11.80;99.90
12504;DHT22;6316;48.118;-1.690;2023-05-24T06:04:48;11.90;99.90
12504;DHT22;6316;48.118;-1.690;2023-05-24T06:07:13;11.90;99.90
12504;DHT22;6316;48.118;-1.690;2023-05-24T06:09:39;12.00;99.90
12504;DHT22;6316;48.118;-1.690;2023-05-24T06:12:05;12.10;99.90
12504;DHT22;6316;48.118;-1.690;2023-05-24T06:14:31;12.20;99.90
12504;DHT22;6316;48.118;-1.690;2023-05-24T06:16:57;12.30;99.90
12504;DHT22;6316;48.118;-1.690;2023-05-24T06:19:23;12.40;99.90
12504;DHT22;6316;48.118;-1.690;2023-05-24T06:21:49;12.40;99.90
12504;DHT22;6316;48.118;-1.690;2023-05-24T06:24:16;12.50;99.90
12504;DHT22;6316;48.118;-1.690;2023-05-24T06:26:50;12.60;99.90
12504;DHT22;6316;48.118;-1.690;2023-05-24T06:29:16;12.70;99.90
12504;DHT22;6316;48.118;-1.690;2023-05-24T06:31:45;12.80;99.90
12504;DHT22;6316;48.118;-1.690;2023-05-24T06:34:12;12.90;99.90
12504;DHT22;6316;48.118;-1.690;2023-05-24T06:36:38;13.00;99.90
12504;DHT22;6316;48.118;-1.690;2023-05-24T06:39:14;13.10;99.90
12504;DHT22;6316;48.118;-1.690;2023-05-24T06:41:42;13.30;99.90
12504;DHT22;6316;48.118;-1.690;2023-05-24T06:44:08;13.70;99.90
12504;DHT22;6316;48.118;-1.690;2023-05-24T06:46:34;14.20;99.90
12504;DHT22;6316;48.118;-1.690;2023-05-24T06:49:00;14.80;99.90
12504;DHT22;6316;48.118;-1.690;2023-05-24T06:51:26;15.40;99.90
12504;DHT22;6316;48.118;-1.690;2023-05-24T06:53:52;15.90;99.90
12504;DHT22;6316;48.118;-1.690;2023-05-24T06:56:18;16.50;99.90
12504;DHT22;6316;48.118;-1.690;2023-05-24T06:58:43;16.90;99.90
12504;DHT22;6316;48.118;-1.690;2023-05-24T07:01:10;17.30;99.90
12504;DHT22;6316;48.118;-1.690;2023-05-24T07:03:36;17.60;99.90
12504;DHT22;6316;48.118;-1.690;2023-05-24T07:06:02;17.80;99.90
12504;DHT22;6316;48.118;-1.690;2023-05-24T07:08:28;17.80;99.90
12504;DHT22;6316;48.118;-1.690;2023-05-24T07:10:54;17.80;99.90
12504;DHT22;6316;48.118;-1.690;2023-05-24T07:13:20;17.90;99.90
12504;DHT22;6316;48.118;-1.690;2023-05-24T07:15:46;17.90;99.90
12504;DHT22;6316;48.118;-1.690;2023-05-24T07:18:12;17.90;99.90
12504;DHT22;6316;48.118;-1.690;2023-05-24T07:20:38;17.90;99.90
12504;DHT22;6316;48.118;-1.690;2023-05-24T07:23:04;17.90;99.90
12504;DHT22;6316;48.118;-1.690;2023-05-24T07:25:31;18.00;99.90
12504;DHT22;6316;48.118;-1.690;2023-05-24T07:27:59;18.30;99.80
12504;DHT22;6316;48.118;-1.690;2023-05-24T07:30:24;18.60;99.70
12504;DHT22;6316;48.118;-1.690;2023-05-24T07:32:50;19.00;99.50
12504;DHT22;6316;48.118;-1.690;2023-05-24T07:35:17;19.30;99.20
12504;DHT22;6316;48.118;-1.690;2023-05-24T07:37:43;19.60;99.10
12504;DHT22;6316;48.118;-1.690;2023-05-24T07:40:08;19.90;98.80
12504;DHT22;6316;48.118;-1.690;2023-05-24T07:42:38;20.20;98.50
12504;DHT22;6316;48.118;-1.690;2023-05-24T07:45:07;20.40;98.20
12504;DHT22;6316;48.118;-1.690;2023-05-24T07:47:35;20.60;98.00
12504;DHT22;6316;48.118;-1.690;2023-05-24T07:50:00;20.80;97.80
12504;DHT22;6316;48.118;-1.690;2023-05-24T07:52:26;20.90;97.60
12504;DHT22;6316;48.118;-1.690;2023-05-24T07:54:52;21.10;97.60
12504;DHT22;6316;48.118;-1.690;2023-05-24T07:57:18;21.20;97.40
12504;DHT22;6316;48.118;-1.690;2023-05-24T07:59:44;21.30;97.30
12504;DHT22;6316;48.118;-1.690;2023-05-24T08:02:10;21.40;97.20
12504;DHT22;6316;48.118;-1.690;2023-05-24T08:04:38;21.60;97.10
12504;DHT22;6316;48.118;-1.690;2023-05-24T08:07:03;21.80;96.90
12504;DHT22;6316;48.118;-1.690;2023-05-24T08:09:29;21.90;96.80
12504;DHT22;6316;48.118;-1.690;2023-05-24T08:12:00;21.90;96.70
12504;DHT22;6316;48.118;-1.690;2023-05-24T08:14:26;22.00;96.60
12504;DHT22;6316;48.118;-1.690;2023-05-24T08:16:52;22.10;96.60
12504;DHT22;6316;48.118;-1.690;2023-05-24T08:19:18;22.30;96.40
12504;DHT22;6316;48.118;-1.690;2023-05-24T08:21:44;22.50;96.30
12504;DHT22;6316;48.118;-1.690;2023-05-24T08:24:09;22.70;96.10
12504;DHT22;6316;48.118;-1.690;2023-05-24T08:26:35;23.00;96.00
12504;DHT22;6316;48.118;-1.690;2023-05-24T08:29:01;23.20;95.80
12504;DHT22;6316;48.118;-1.690;2023-05-24T08:31:28;23.30;95.50
12504;DHT22;6316;48.118;-1.690;2023-05-24T08:33:53;23.50;95.40
12504;DHT22;6316;48.118;-1.690;2023-05-24T08:36:21;23.60;95.10
12504;DHT22;6316;48.118;-1.690;2023-05-24T08:38:47;23.70;95.00
12504;DHT22;6316;48.118;-1.690;2023-05-24T08:41:12;23.80;94.80
12504;DHT22;6316;48.118;-1.690;2023-05-24T08:43:38;23.90;94.70
12504;DHT22;6316;48.118;-1.690;2023-05-24T08:46:06;23.90;94.60
12504;DHT22;6316;48.118;-1.690;2023-05-24T08:48:33;24.00;94.50
12504;DHT22;6316;48.118;-1.690;2023-05-24T08:50:59;24.10;94.40
12504;DHT22;6316;48.118;-1.690;2023-05-24T08:53:25;24.00;94.30
12504;DHT22;6316;48.118;-1.690;2023-05-24T08:55:51;24.10;94.30
12504;DHT22;6316;48.118;-1.690;2023-05-24T08:58:19;24.20;94.20
12504;DHT22;6316;48.118;-1.690;2023-05-24T09:00:45;24.30;94.10
12504;DHT22;6316;48.118;-1.690;2023-05-24T09:03:11;24.40;93.90
12504;DHT22;6316;48.118;-1.690;2023-05-24T09:05:40;24.30;93.70
12504;DHT22;6316;48.118;-1.690;2023-05-24T09:08:06;24.30;93.70
12504;DHT22;6316;48.118;-1.690;2023-05-24T09:10:32;24.40;93.60
12504;DHT22;6316;48.118;-1.690;2023-05-24T09:13:01;24.50;93.50
12504;DHT22;6316;48.118;-1.690;2023-05-24T09:15:27;24.70;93.30
12504;DHT22;6316;48.118;-1.690;2023-05-24T09:17:53;24.70;93.00
12504;DHT22;6316;48.118;-1.690;2023-05-24T09:20:20;24.40;92.70
12504;DHT22;6316;48.118;-1.690;2023-05-24T09:22:50;24.10;92.70
12504;DHT22;6316;48.118;-1.690;2023-05-24T09:25:18;23.90;92.70
12504;DHT22;6316;48.118;-1.690;2023-05-24T09:27:52;23.60;92.60
12504;DHT22;6316;48.118;-1.690;2023-05-24T09:30:18;23.20;92.70
12504;DHT22;6316;48.118;-1.690;2023-05-24T09:32:58;22.80;93.10
12504;DHT22;6316;48.118;-1.690;2023-05-24T09:35:28;22.40;92.70
12504;DHT22;6316;48.118;-1.690;2023-05-24T09:37:54;22.00;92.80
12504;DHT22;6316;48.118;-1.690;2023-05-24T09:40:22;21.50;92.80
12504;DHT22;6316;48.118;-1.690;2023-05-24T09:42:48;21.20;92.80
12504;DHT22;6316;48.118;-1.690;2023-05-24T09:45:17;20.80;92.90
12504;DHT22;6316;48.118;-1.690;2023-05-24T09:47:43;20.50;93.00
12504;DHT22;6316;48.118;-1.690;2023-05-24T09:50:14;20.20;93.10
12504;DHT22;6316;48.118;-1.690;2023-05-24T09:52:41;19.90;93.10
12504;DHT22;6316;48.118;-1.690;2023-05-24T09:55:18;19.80;93.20
12504;DHT22;6316;48.118;-1.690;2023-05-24T09:57:59;19.60;93.20
12504;DHT22;6316;48.118;-1.690;2023-05-24T10:00:26;19.50;93.20
12504;DHT22;6316;48.118;-1.690;2023-05-24T10:03:06;19.40;93.20
12504;DHT22;6316;48.118;-1.690;2023-05-24T10:05:32;19.30;93.10
12504;DHT22;6316;48.118;-1.690;2023-05-24T10:07:59;19.20;93.00
12504;DHT22;6316;48.118;-1.690;2023-05-24T10:10:30;19.20;93.00
12504;DHT22;6316;48.118;-1.690;2023-05-24T10:12:56;19.20;93.00
12504;DHT22;6316;48.118;-1.690;2023-05-24T10:15:23;19.20;92.90
12504;DHT22;6316;48.118;-1.690;2023-05-24T10:17:50;19.20;92.80
12504;DHT22;6316;48.118;-1.690;2023-05-24T10:20:16;19.20;92.70
12504;DHT22;6316;48.118;-1.690;2023-05-24T10:22:45;19.10;92.80
12504;DHT22;6316;48.118;-1.690;2023-05-24T10:25:23;19.10;92.50
12504;DHT22;6316;48.118;-1.690;2023-05-24T10:27:56;19.10;92.50
12504;DHT22;6316;48.118;-1.690;2023-05-24T10:30:30;19.00;92.40
12504;DHT22;6316;48.118;-1.690;2023-05-24T10:32:58;19.00;92.30
12504;DHT22;6316;48.118;-1.690;2023-05-24T10:35:26;19.00;92.30
12504;DHT22;6316;48.118;-1.690;2023-05-24T10:37:53;19.10;92.10
12504;DHT22;6316;48.118;-1.690;2023-05-24T10:40:22;19.00;91.90
12504;DHT22;6316;48.118;-1.690;2023-05-24T10:42:52;19.00;91.80
12504;DHT22;6316;48.118;-1.690;2023-05-24T10:47:49;19.00;91.60
12504;DHT22;6316;48.118;-1.690;2023-05-24T10:50:17;19.00;91.50
12504;DHT22;6316;48.118;-1.690;2023-05-24T10:52:42;19.10;91.40
12504;DHT22;6316;48.118;-1.690;2023-05-24T10:55:09;19.10;91.30
12504;DHT22;6316;48.118;-1.690;2023-05-24T10:57:37;19.10;91.20
12504;DHT22;6316;48.118;-1.690;2023-05-24T11:02:50;19.10;91.00
12504;DHT22;6316;48.118;-1.690;2023-05-24T11:05:23;19.10;90.90
12504;DHT22;6316;48.118;-1.690;2023-05-24T11:07:49;19.10;90.80
12504;DHT22;6316;48.118;-1.690;2023-05-24T11:10:29;19.10;90.80
12504;DHT22;6316;48.118;-1.690;2023-05-24T11:13:02;19.20;90.70
12504;DHT22;6316;48.118;-1.690;2023-05-24T11:15:28;19.20;90.50
12504;DHT22;6316;48.118;-1.690;2023-05-24T11:20:40;19.20;90.20
12504;DHT22;6316;48.118;-1.690;2023-05-24T11:23:07;19.20;90.10
12504;DHT22;6316;48.118;-1.690;2023-05-24T11:25:37;19.20;90.00
12504;DHT22;6316;48.118;-1.690;2023-05-24T11:28:06;19.30;90.00
12504;DHT22;6316;48.118;-1.690;2023-05-24T11:30:32;19.40;90.00
12504;DHT22;6316;48.118;-1.690;2023-05-24T11:32:58;19.40;89.60
12504;DHT22;6316;48.118;-1.690;2023-05-24T11:35:26;19.50;89.20
12504;DHT22;6316;48.118;-1.690;2023-05-24T11:37:57;19.50;89.00
12504;DHT22;6316;48.118;-1.690;2023-05-24T11:40:23;19.50;88.70
12504;DHT22;6316;48.118;-1.690;2023-05-24T11:42:49;19.50;88.50
12504;DHT22;6316;48.118;-1.690;2023-05-24T11:45:17;19.50;88.30
12504;DHT22;6316;48.118;-1.690;2023-05-24T11:47:43;19.60;88.20
12504;DHT22;6316;48.118;-1.690;2023-05-24T11:50:09;19.60;88.20
12504;DHT22;6316;48.118;-1.690;2023-05-24T11:52:41;19.60;88.00
12504;DHT22;6316;48.118;-1.690;2023-05-24T11:55:09;19.60;87.80
12504;DHT22;6316;48.118;-1.690;2023-05-24T11:57:37;19.60;87.70
12504;DHT22;6316;48.118;-1.690;2023-05-24T12:00:06;19.70;87.70
12504;DHT22;6316;48.118;-1.690;2023-05-24T12:02:36;19.70;87.50
12504;DHT22;6316;48.118;-1.690;2023-05-24T12:05:06;19.80;87.30
12504;DHT22;6316;48.118;-1.690;2023-05-24T12:07:36;19.80;87.00
12504;DHT22;6316;48.118;-1.690;2023-05-24T12:10:03;19.80;86.90
12504;DHT22;6316;48.118;-1.690;2023-05-24T12:12:29;19.80;86.60
12504;DHT22;6316;48.118;-1.690;2023-05-24T12:14:55;19.80;86.40
12504;DHT22;6316;48.118;-1.690;2023-05-24T12:17:21;19.80;86.40
12504;DHT22;6316;48.118;-1.690;2023-05-24T12:19:50;19.90;86.40
12504;DHT22;6316;48.118;-1.690;2023-05-24T12:22:16;19.90;86.40
12504;DHT22;6316;48.118;-1.690;2023-05-24T12:24:42;20.00;86.20
12504;DHT22;6316;48.118;-1.690;2023-05-24T12:27:08;20.00;86.10
12504;DHT22;6316;48.118;-1.690;2023-05-24T12:29:39;20.10;86.20
12504;DHT22;6316;48.118;-1.690;2023-05-24T12:32:05;20.10;86.00
12504;DHT22;6316;48.118;-1.690;2023-05-24T12:34:36;20.20;86.00
12504;DHT22;6316;48.118;-1.690;2023-05-24T12:37:02;20.20;86.00
12504;DHT22;6316;48.118;-1.690;2023-05-24T12:39:28;20.20;85.90
12504;DHT22;6316;48.118;-1.690;2023-05-24T12:42:01;20.20;86.70
12504;DHT22;6316;48.118;-1.690;2023-05-24T12:44:34;20.30;85.80
12504;DHT22;6316;48.118;-1.690;2023-05-24T12:47:05;20.30;85.80
12504;DHT22;6316;48.118;-1.690;2023-05-24T12:49:32;20.40;85.70
12504;DHT22;6316;48.118;-1.690;2023-05-24T12:51:58;20.40;85.60
12504;DHT22;6316;48.118;-1.690;2023-05-24T12:54:26;20.40;85.60
12504;DHT22;6316;48.118;-1.690;2023-05-24T12:56:53;20.40;85.60
12504;DHT22;6316;48.118;-1.690;2023-05-24T12:59:19;20.50;85.60
12504;DHT22;6316;48.118;-1.690;2023-05-24T13:01:45;20.50;85.30
12504;DHT22;6316;48.118;-1.690;2023-05-24T13:04:19;20.50;85.20
12504;DHT22;6316;48.118;-1.690;2023-05-24T13:06:45;20.50;85.20
12504;DHT22;6316;48.118;-1.690;2023-05-24T13:09:12;20.60;85.20
12504;DHT22;6316;48.118;-1.690;2023-05-24T13:11:38;20.60;85.10
12504;DHT22;6316;48.118;-1.690;2023-05-24T13:14:04;20.60;85.10
12504;DHT22;6316;48.118;-1.690;2023-05-24T13:16:30;20.60;85.10
12504;DHT22;6316;48.118;-1.690;2023-05-24T13:18:56;20.60;84.90
12504;DHT22;6316;48.118;-1.690;2023-05-24T13:21:22;20.60;84.90
12504;DHT22;6316;48.118;-1.690;2023-05-24T13:23:48;20.70;85.70
12504;DHT22;6316;48.118;-1.690;2023-05-24T13:26:14;20.60;84.90
12504;DHT22;6316;48.118;-1.690;2023-05-24T13:28:39;20.60;84.90
12504;DHT22;6316;48.118;-1.690;2023-05-24T13:31:05;20.70;85.00
12504;DHT22;6316;48.118;-1.690;2023-05-24T13:33:31;20.70;84.90
12504;DHT22;6316;48.118;-1.690;2023-05-24T13:35:57;20.70;85.00
12504;DHT22;6316;48.118;-1.690;2023-05-24T13:38:23;20.80;85.10
12504;DHT22;6316;48.118;-1.690;2023-05-24T13:40:49;20.80;85.10
12504;DHT22;6316;48.118;-1.690;2023-05-24T13:43:15;20.90;85.10
12504;DHT22;6316;48.118;-1.690;2023-05-24T13:45:43;20.90;85.00
12504;DHT22;6316;48.118;-1.690;2023-05-24T13:48:08;20.90;84.90
12504;DHT22;6316;48.118;-1.690;2023-05-24T13:50:35;20.90;85.00
12504;DHT22;6316;48.118;-1.690;2023-05-24T13:53:02;20.90;85.00
12504;DHT22;6316;48.118;-1.690;2023-05-24T13:55:28;20.90;85.00
12504;DHT22;6316;48.118;-1.690;2023-05-24T13:57:55;20.90;85.10
12504;DHT22;6316;48.118;-1.690;2023-05-24T14:00:22;20.90;85.00
12504;DHT22;6316;48.118;-1.690;2023-05-24T14:02:48;20.90;85.00
12504;DHT22;6316;48.118;-1.690;2023-05-24T14:05:14;20.90;85.00
12504;DHT22;6316;48.118;-1.690;2023-05-24T14:07:40;21.00;85.10
12504;DHT22;6316;48.118;-1.690;2023-05-24T14:10:06;21.00;85.00
12504;DHT22;6316;48.118;-1.690;2023-05-24T14:12:32;21.00;85.00
12504;DHT22;6316;48.118;-1.690;2023-05-24T14:14:57;21.10;85.10
12504;DHT22;6316;48.118;-1.690;2023-05-24T14:17:23;21.10;85.10
12504;DHT22;6316;48.118;-1.690;2023-05-24T14:19:49;21.10;85.00
12504;DHT22;6316;48.118;-1.690;2023-05-24T14:22:14;21.10;84.90
12504;DHT22;6316;48.118;-1.690;2023-05-24T14:24:40;21.10;85.10
12504;DHT22;6316;48.118;-1.690;2023-05-24T14:27:05;21.20;85.10
12504;DHT22;6316;48.118;-1.690;2023-05-24T14:29:32;21.20;85.10
12504;DHT22;6316;48.118;-1.690;2023-05-24T14:31:57;21.20;85.10
12504;DHT22;6316;48.118;-1.690;2023-05-24T14:34:23;21.20;85.10
12504;DHT22;6316;48.118;-1.690;2023-05-24T14:36:49;21.20;85.10
12504;DHT22;6316;48.118;-1.690;2023-05-24T14:39:14;21.20;85.10
12504;DHT22;6316;48.118;-1.690;2023-05-24T14:41:40;21.20;85.20
12504;DHT22;6316;48.118;-1.690;2023-05-24T14:44:06;21.30;85.30
12504;DHT22;6316;48.118;-1.690;2023-05-24T14:46:32;21.30;85.30
12504;DHT22;6316;48.118;-1.690;2023-05-24T14:48:57;21.30;85.20
12504;DHT22;6316;48.118;-1.690;2023-05-24T14:51:23;21.30;85.20
12504;DHT22;6316;48.118;-1.690;2023-05-24T14:53:49;21.30;85.20
12504;DHT22;6316;48.118;-1.690;2023-05-24T14:56:15;21.30;85.30
12504;DHT22;6316;48.118;-1.690;2023-05-24T14:58:41;21.30;85.40
12504;DHT22;6316;48.118;-1.690;2023-05-24T15:01:07;21.40;85.40
12504;DHT22;6316;48.118;-1.690;2023-05-24T15:03:36;21.40;85.40
12504;DHT22;6316;48.118;-1.690;2023-05-24T15:06:03;21.40;85.40
12504;DHT22;6316;48.118;-1.690;2023-05-24T15:08:28;21.30;85.40
12504;DHT22;6316;48.118;-1.690;2023-05-24T15:10:54;21.30;85.40
12504;DHT22;6316;48.118;-1.690;2023-05-24T15:13:20;21.30;85.40
12504;DHT22;6316;48.118;-1.690;2023-05-24T15:15:47;21.30;85.60
12504;DHT22;6316;48.118;-1.690;2023-05-24T15:18:13;21.30;85.60
12504;DHT22;6316;48.118;-1.690;2023-05-24T15:20:39;21.40;85.70
12504;DHT22;6316;48.118;-1.690;2023-05-24T15:23:05;21.40;85.70
12504;DHT22;6316;48.118;-1.690;2023-05-24T15:25:35;21.40;85.70
12504;DHT22;6316;48.118;-1.690;2023-05-24T15:28:00;21.40;85.70
12504;DHT22;6316;48.118;-1.690;2023-05-24T15:30:26;21.40;85.80
12504;DHT22;6316;48.118;-1.690;2023-05-24T15:32:51;21.40;85.90
12504;DHT22;6316;48.118;-1.690;2023-05-24T15:35:17;21.40;86.00
12504;DHT22;6316;48.118;-1.690;2023-05-24T15:37:43;21.40;86.00
12504;DHT22;6316;48.118;-1.690;2023-05-24T15:40:09;21.40;86.00
12504;DHT22;6316;48.118;-1.690;2023-05-24T15:42:35;21.40;86.10
12504;DHT22;6316;48.118;-1.690;2023-05-24T15:45:01;21.50;86.20
12504;DHT22;6316;48.118;-1.690;2023-05-24T15:47:26;21.40;86.10
12504;DHT22;6316;48.118;-1.690;2023-05-24T15:49:54;21.40;86.20
12504;DHT22;6316;48.118;-1.690;2023-05-24T15:52:20;21.40;86.40